^^
Albertville, AL Historical Data
 
Daily Summary for February 29, 2020 Units:  English    Metric   Both
Daily Weekly Monthly Yearly Custom
  Current: High: Low: Average:
Temperature: 34.4 °F 40.7 °F 34.2 °F 37.3 °F
Dew Point: 31.8 °F 35.9 °F 31.1 °F 33.4 °F
Humidity: 90% 90% 74% 86%
Wind Speed: 0mph 9mph 0mph 1mph
Wind Gust: 1mph 17mph - -
WindCalm - - WNW
Pressure: 30.22 in 30.22 in 30.18 in -
Precipitation: 0.01 in      
Historical Graphs
 
 
Tabular Data for February 29, 2020
Time Temperature Dew Point Pressure Wind Wind Speed Wind Gust Humidity Rainfall Rate (Hourly) solar
00:00 40.5 °F 32.9 °F 30.21 in West 7 mph 15 mph 74% 0 in 0.00 W/m2
00:05 40.6 °F 34.6 °F 30.20 in WNW 9 mph 17 mph 79% 0.01 in 0.00 W/m2
00:10 40.7 °F 35 °F 30.20 in WNW 7 mph 14 mph 80% 0.01 in 0.00 W/m2
00:15 40.7 °F 35.6 °F 30.19 in WNW 7 mph 11 mph 82% 0.01 in 0.00 W/m2
00:20 40.7 °F 35.6 °F 30.19 in WNW 5 mph 15 mph 82% 0.01 in 0.00 W/m2
00:25 40.7 °F 35.9 °F 30.20 in WNW 5 mph 10 mph 83% 0.01 in 0.00 W/m2
00:30 40.7 °F 35.9 °F 30.19 in WNW 6 mph 12 mph 83% 0.01 in 0.00 W/m2
00:35 40.7 °F 35.9 °F 30.19 in WNW 6 mph 15 mph 83% 0.01 in 0.00 W/m2
00:40 40.6 °F 35.8 °F 30.19 in WNW 4 mph 9 mph 83% 0.01 in 0.00 W/m2
00:45 40.5 °F 35.8 °F 30.19 in WNW 3 mph 7 mph 83% 0.01 in 0.00 W/m2
00:50 40.4 °F 35.7 °F 30.19 in West 3 mph 7 mph 83% 0.01 in 0.00 W/m2
00:55 40.3 °F 35.6 °F 30.19 in WNW 2 mph 8 mph 83% 0.01 in 0.00 W/m2
01:00 40.3 °F 35.9 °F 30.19 in NW 1 mph 4 mph 84% 0.01 in 0.00 W/m2
01:05 40.2 °F 35.8 °F 30.19 in NW 1 mph 3 mph 84% 0 in 0.00 W/m2
01:10 40.1 °F 35.7 °F 30.18 in WNW 2 mph 5 mph 84% 0 in 0.00 W/m2
01:15 40 °F 35.6 °F 30.18 in WNW 1 mph 4 mph 84% 0 in 0.00 W/m2
01:20 40 °F 35.6 °F 30.18 in WNW 1 mph 4 mph 84% 0 in 0.00 W/m2
01:25 39.9 °F 35.5 °F 30.18 in WNW 1 mph 3 mph 84% 0 in 0.00 W/m2
01:30 39.8 °F 35.4 °F 30.18 in Calm   3 mph 84% 0 in 0.00 W/m2
01:35 39.7 °F 35.3 °F 30.18 in Calm   2 mph 84% 0 in 0.00 W/m2
01:40 39.7 °F 35.3 °F 30.18 in Calm   2 mph 84% 0 in 0.00 W/m2
01:45 39.6 °F 35.2 °F 30.18 in WNW 1 mph 4 mph 84% 0 in 0.00 W/m2
01:50 39.4 °F 35 °F 30.18 in WNW 1 mph 4 mph 84% 0 in 0.00 W/m2
01:55 39.3 °F 34.9 °F 30.18 in WNW 1 mph 3 mph 84% 0 in 0.00 W/m2
02:00 39.1 °F 34.7 °F 30.18 in WNW 1 mph 3 mph 84% 0 in 0.00 W/m2
02:05 39 °F 34.6 °F 30.18 in Calm   2 mph 84% 0 in 0.00 W/m2
02:10 38.9 °F 34.5 °F 30.18 in Calm   2 mph 84% 0 in 0.00 W/m2
02:15 38.8 °F 34.4 °F 30.18 in WNW 1 mph 3 mph 84% 0 in 0.00 W/m2
02:20 38.7 °F 34.6 °F 30.18 in WNW 1 mph 3 mph 85% 0 in 0.00 W/m2
02:25 38.5 °F 34.4 °F 30.18 in WNW 1 mph 3 mph 85% 0 in 0.00 W/m2
02:30 38.4 °F 34.3 °F 30.18 in Calm   1 mph 85% 0 in 0.00 W/m2
02:35 38.2 °F 34.1 °F 30.18 in Calm   1 mph 85% 0 in 0.00 W/m2
02:40 38.1 °F 34 °F 30.18 in Calm   2 mph 85% 0 in 0.00 W/m2
02:45 37.9 °F 33.8 °F 30.18 in Calm   2 mph 85% 0 in 0.00 W/m2
02:50 37.7 °F 33.6 °F 30.18 in Calm     85% 0 in 0.00 W/m2
02:55 37.6 °F 33.8 °F 30.18 in Calm   1 mph 86% 0 in 0.00 W/m2
03:00 37.4 °F 33.6 °F 30.18 in Calm     86% 0 in 0.00 W/m2
03:05 37.3 °F 33.5 °F 30.18 in Calm   1 mph 86% 0 in 0.00 W/m2
03:10 37.1 °F 33.3 °F 30.18 in Calm     86% 0 in 0.00 W/m2
03:15 37 °F 33.2 °F 30.18 in Calm     86% 0 in 0.00 W/m2
03:20 36.8 °F 33 °F 30.18 in Calm     86% 0 in 0.00 W/m2
03:25 36.6 °F 32.8 °F 30.18 in Calm     86% 0 in 0.00 W/m2
03:30 36.5 °F 32.7 °F 30.18 in Calm     86% 0 in 0.00 W/m2
03:35 36.3 °F 32.5 °F 30.18 in Calm     86% 0 in 0.00 W/m2
03:40 36.1 °F 32.3 °F 30.18 in Calm     86% 0 in 0.00 W/m2
03:45 36 °F 32.2 °F 30.18 in Calm     86% 0 in 0.00 W/m2
03:50 35.8 °F 32 °F 30.18 in Calm     86% 0 in 0.00 W/m2
03:55 35.6 °F 31.8 °F 30.18 in Calm   1 mph 86% 0 in 0.00 W/m2
04:00 35.5 °F 31.7 °F 30.18 in Calm     86% 0 in 0.00 W/m2
04:05 35.3 °F 31.5 °F 30.18 in Calm     86% 0 in 0.00 W/m2
04:10 35.2 °F 31.4 °F 30.18 in Calm   1 mph 86% 0 in 0.00 W/m2
04:15 35 °F 31.5 °F 30.18 in Calm   1 mph 87% 0 in 0.00 W/m2
04:20 34.8 °F 31.3 °F 30.19 in Calm     87% 0 in 0.00 W/m2
04:25 34.7 °F 31.2 °F 30.19 in Calm   2 mph 87% 0 in 0.00 W/m2
04:30 34.5 °F 31.3 °F 30.19 in Calm   2 mph 88% 0 in 0.00 W/m2
04:35 34.4 °F 31.2 °F 30.19 in Calm   1 mph 88% 0 in 0.00 W/m2
04:40 34.3 °F 31.1 °F 30.20 in Calm   1 mph 88% 0 in 0.00 W/m2
04:45 34.2 °F 31.3 °F 30.20 in Calm   1 mph 89% 0 in 0.00 W/m2
04:50 34.2 °F 31.3 °F 30.19 in Calm   1 mph 89% 0 in 0.00 W/m2
04:55 34.3 °F 31.4 °F 30.19 in Calm   1 mph 89% 0 in 0.00 W/m2
05:00 34.3 °F 31.7 °F 30.20 in Calm   1 mph 90% 0 in 0.00 W/m2
05:05 34.4 °F 31.8 °F 30.20 in Calm   1 mph 90% 0 in 0.00 W/m2
05:10 34.4 °F 31.8 °F 30.20 in Calm   1 mph 90% 0 in 0.00 W/m2
05:15 34.5 °F 31.9 °F 30.20 in Calm     90% 0 in 0.00 W/m2
05:20 34.5 °F 31.9 °F 30.21 in Calm     90% 0 in 0.00 W/m2
05:25 34.5 °F 31.9 °F 30.21 in Calm     90% 0 in 0.00 W/m2
05:30 34.5 °F 31.9 °F 30.21 in Calm   1 mph 90% 0 in 0.00 W/m2
05:35 34.5 °F 31.9 °F 30.21 in Calm   1 mph 90% 0 in 0.00 W/m2
05:40 34.5 °F 31.9 °F 30.21 in Calm   1 mph 90% 0 in 0.00 W/m2
05:45 34.5 °F 31.9 °F 30.21 in Calm     90% 0 in 0.00 W/m2
05:50 34.5 °F 31.9 °F 30.21 in Calm   1 mph 90% 0 in 0.00 W/m2
05:55 34.5 °F 31.9 °F 30.21 in Calm   1 mph 90% 0 in 0.00 W/m2
06:00 34.4 °F 31.8 °F 30.21 in Calm   1 mph 90% 0 in 0.00 W/m2
06:05 34.4 °F 31.8 °F 30.22 in Calm   1 mph 90% 0 in 0.00 W/m2
06:10 34.4 °F 31.8 °F 30.22 in Calm   1 mph 90% 0 in 0.00 W/m2
Albertville, AL Weather
Compliments of Weather Underground - 2 mb